الصفحة الرئيسية
METAR-TAF:

METAR-TAF

مطار :

انجمينا, تشاد

مطار انجمينا الدولي

دائرة عرض: 12-08N, خط طول: 015-02E, ارتفاع: 295 متر

مراقبة الطقس الحالي

تاريخ ووقت الإصدار 17 دقيقة قبل الساعة 11:00UTC
ريح 9 عقدة من الشمال الشرقي, الاتجاه يتراوح بين الشمال و الشرق
درجة الحرارة 29°درجة مئوية
الرطوبة 10%
ضغط 1014 hPa
الرؤية: 8000 متر

METAR: FTTJ 171100Z 04009KT 350V090 8000 NSC 29/M06 Q1014 NOSIG

زمن: 12:17 (11:17 UTC)

توقعات

تاريخ ووقت الإصدار 6ساعات و 5 دقيقة قبل الساعة 05:12UTC
التوقعات صالحة من17 الساعة 06 UTC إلى 18 الساعة 12 UTC
ريح 6 عقدة من الشمال/الشمال الغربي
الرؤية: 6000 متر
مؤقت
من 17 الساعة 08 UTC إلى 17 الساعة 16 UTC
ريح 12 عقدة من الشمال الشرقي

TAF: FTTJ 170512Z 1706/1812 34006KT 6000 NSC TEMPO 1708/1716 04012KT

أرصاد الطقس والتوقعات من أكثر من 4000 مطار (تقارير الطقس للمطار METAR والتنبؤ بالطقس بالمطارTAF).

المحطات المتاحة هي النقط الصفراء والحمراء على الخريطة.

حرك المؤشر فوق النقطة لمعرفة اسم المحطة.

ثم انقر لمعرفة أرصاد وتوقعات الطقس.

لتغيير الخارطة: اضغط على الأزرار الخضراء مع رمز الصليب الأسود للتكبير. على الزر الأخضر مع شرطة للتصغير، أو على الأسهم الخضراء للخرائط المجاورة.


METAR-TAF: